sensor_id;sensor_type;location;lat;lon;timestamp;pressure;altitude;pressure_sealevel;temperature;humidity
35647;BME280;28680;45.642;13.756;2023-04-24T00:01:52;100477.53;;;16.91;100.00
35647;BME280;28680;45.642;13.756;2023-04-24T00:04:18;100479.19;;;16.84;100.00
35647;BME280;28680;45.642;13.756;2023-04-24T00:06:44;100483.66;;;16.83;100.00
35647;BME280;28680;45.642;13.756;2023-04-24T00:09:15;100478.88;;;16.87;100.00
35647;BME280;28680;45.642;13.756;2023-04-24T00:11:41;100474.22;;;16.89;100.00
35647;BME280;28680;45.642;13.756;2023-04-24T00:14:07;100478.88;;;16.87;100.00
35647;BME280;28680;45.642;13.756;2023-04-24T00:16:33;100469.72;;;16.81;100.00
35647;BME280;28680;45.642;13.756;2023-04-24T00:18:58;100475.03;;;16.89;100.00
35647;BME280;28680;45.642;13.756;2023-04-24T00:21:26;100470.75;;;16.88;100.00
35647;BME280;28680;45.642;13.756;2023-04-24T00:23:52;100471.72;;;16.87;100.00
35647;BME280;28680;45.642;13.756;2023-04-24T00:26:18;100468.09;;;16.88;100.00
35647;BME280;28680;45.642;13.756;2023-04-24T00:28:44;100472.69;;;16.78;100.00
35647;BME280;28680;45.642;13.756;2023-04-24T00:31:10;100468.59;;;16.84;100.00
35647;BME280;28680;45.642;13.756;2023-04-24T00:33:36;100469.25;;;16.69;100.00
35647;BME280;28680;45.642;13.756;2023-04-24T00:36:02;100471.56;;;16.64;100.00
35647;BME280;28680;45.642;13.756;2023-04-24T00:38:28;100470.09;;;16.62;100.00
35647;BME280;28680;45.642;13.756;2023-04-24T00:40:54;100475.88;;;16.57;100.00
35647;BME280;28680;45.642;13.756;2023-04-24T00:43:20;100470.41;;;16.59;100.00
35647;BME280;28680;45.642;13.756;2023-04-24T00:45:46;100470.75;;;16.64;100.00
35647;BME280;28680;45.642;13.756;2023-04-24T00:48:12;100461.13;;;16.63;100.00
35647;BME280;28680;45.642;13.756;2023-04-24T00:50:39;100454.84;;;16.64;100.00
35647;BME280;28680;45.642;13.756;2023-04-24T00:53:05;100454.50;;;16.59;100.00
35647;BME280;28680;45.642;13.756;2023-04-24T00:55:32;100447.53;;;16.57;100.00
35647;BME280;28680;45.642;13.756;2023-04-24T00:57:58;100446.72;;;16.57;100.00
35647;BME280;28680;45.642;13.756;2023-04-24T01:00:24;100437.94;;;16.56;100.00
35647;BME280;28680;45.642;13.756;2023-04-24T01:02:52;100440.63;;;16.48;100.00
35647;BME280;28680;45.642;13.756;2023-04-24T01:05:18;100440.25;;;16.51;100.00
35647;BME280;28680;45.642;13.756;2023-04-24T01:07:45;100431.81;;;16.48;100.00
35647;BME280;28680;45.642;13.756;2023-04-24T01:10:14;100428.88;;;16.43;100.00
35647;BME280;28680;45.642;13.756;2023-04-24T01:12:41;100433.00;;;16.45;100.00
35647;BME280;28680;45.642;13.756;2023-04-24T01:15:07;100417.59;;;16.49;100.00
35647;BME280;28680;45.642;13.756;2023-04-24T01:17:34;100423.88;;;16.48;100.00
35647;BME280;28680;45.642;13.756;2023-04-24T01:20:00;100422.72;;;16.50;100.00
35647;BME280;28680;45.642;13.756;2023-04-24T01:22:27;100422.88;;;16.49;100.00
35647;BME280;28680;45.642;13.756;2023-04-24T01:24:53;100422.53;;;16.52;100.00
35647;BME280;28680;45.642;13.756;2023-04-24T01:27:20;100414.94;;;16.49;100.00
35647;BME280;28680;45.642;13.756;2023-04-24T01:29:46;100428.19;;;16.49;100.00
35647;BME280;28680;45.642;13.756;2023-04-24T01:32:17;100420.91;;;16.51;100.00
35647;BME280;28680;45.642;13.756;2023-04-24T01:34:44;100419.88;;;16.52;100.00
35647;BME280;28680;45.642;13.756;2023-04-24T01:37:10;100417.75;;;16.55;100.00
35647;BME280;28680;45.642;13.756;2023-04-24T01:39:36;100422.22;;;16.55;100.00
35647;BME280;28680;45.642;13.756;2023-04-24T01:42:02;100417.75;;;16.55;100.00
35647;BME280;28680;45.642;13.756;2023-04-24T01:44:28;100418.91;;;16.53;100.00
35647;BME280;28680;45.642;13.756;2023-04-24T01:46:55;100406.66;;;16.52;100.00
35647;BME280;28680;45.642;13.756;2023-04-24T01:49:21;100411.13;;;16.43;100.00
35647;BME280;28680;45.642;13.756;2023-04-24T01:51:47;100402.19;;;16.44;100.00
35647;BME280;28680;45.642;13.756;2023-04-24T01:54:13;100403.69;;;16.47;100.00
35647;BME280;28680;45.642;13.756;2023-04-24T01:56:43;100403.03;;;16.45;100.00
35647;BME280;28680;45.642;13.756;2023-04-24T01:59:12;100397.06;;;16.43;100.00
35647;BME280;28680;45.642;13.756;2023-04-24T02:01:38;100386.81;;;16.40;100.00
35647;BME280;28680;45.642;13.756;2023-04-24T02:04:06;100391.25;;;16.47;100.00
35647;BME280;28680;45.642;13.756;2023-04-24T02:06:33;100399.06;;;16.49;100.00
35647;BME280;28680;45.642;13.756;2023-04-24T02:08:59;100397.25;;;16.41;100.00
35647;BME280;28680;45.642;13.756;2023-04-24T02:11:26;100392.25;;;16.38;100.00
35647;BME280;28680;45.642;13.756;2023-04-24T02:13:52;100401.53;;;16.34;100.00
35647;BME280;28680;45.642;13.756;2023-04-24T02:16:19;100398.88;;;16.34;100.00
35647;BME280;28680;45.642;13.756;2023-04-24T02:18:46;100393.75;;;16.41;100.00
35647;BME280;28680;45.642;13.756;2023-04-24T02:21:12;100390.28;;;16.40;100.00
35647;BME280;28680;45.642;13.756;2023-04-24T02:23:37;100381.19;;;16.43;100.00
35647;BME280;28680;45.642;13.756;2023-04-24T02:26:03;100378.69;;;16.41;100.00
35647;BME280;28680;45.642;13.756;2023-04-24T02:28:29;100377.38;;;16.45;100.00
35647;BME280;28680;45.642;13.756;2023-04-24T02:30:55;100378.03;;;16.47;100.00
35647;BME280;28680;45.642;13.756;2023-04-24T02:33:21;100381.00;;;16.44;100.00
35647;BME280;28680;45.642;13.756;2023-04-24T02:35:47;100372.38;;;16.42;100.00
35647;BME280;28680;45.642;13.756;2023-04-24T02:38:13;100359.81;;;16.44;100.00
35647;BME280;28680;45.642;13.756;2023-04-24T02:40:39;100365.47;;;16.41;100.00
35647;BME280;28680;45.642;13.756;2023-04-24T02:43:04;100364.78;;;16.39;100.00
35647;BME280;28680;45.642;13.756;2023-04-24T02:45:30;100364.31;;;16.35;100.00
35647;BME280;28680;45.642;13.756;2023-04-24T02:47:56;100354.19;;;16.31;100.00
35647;BME280;28680;45.642;13.756;2023-04-24T02:50:22;100357.00;;;16.29;100.00
35647;BME280;28680;45.642;13.756;2023-04-24T02:52:48;100359.97;;;16.34;100.00
35647;BME280;28680;45.642;13.756;2023-04-24T02:55:14;100355.19;;;16.30;100.00
35647;BME280;28680;45.642;13.756;2023-04-24T02:57:39;100359.50;;;16.31;100.00
35647;BME280;28680;45.642;13.756;2023-04-24T03:00:06;100354.53;;;16.28;100.00
35647;BME280;28680;45.642;13.756;2023-04-24T03:02:32;100349.72;;;16.23;100.00
35647;BME280;28680;45.642;13.756;2023-04-24T03:04:59;100351.41;;;16.24;100.00
35647;BME280;28680;45.642;13.756;2023-04-24T03:07:25;100352.88;;;16.10;100.00
35647;BME280;28680;45.642;13.756;2023-04-24T03:09:51;100344.13;;;16.10;100.00
35647;BME280;28680;45.642;13.756;2023-04-24T03:12:17;100345.09;;;16.01;100.00
35647;BME280;28680;45.642;13.756;2023-04-24T03:14:46;100342.28;;;16.02;100.00
35647;BME280;28680;45.642;13.756;2023-04-24T03:17:12;100337.00;;;16.02;100.00
35647;BME280;28680;45.642;13.756;2023-04-24T03:19:37;100333.84;;;15.98;100.00
35647;BME280;28680;45.642;13.756;2023-04-24T03:22:04;100330.38;;;15.98;100.00
35647;BME280;28680;45.642;13.756;2023-04-24T03:24:30;100334.19;;;15.95;100.00
35647;BME280;28680;45.642;13.756;2023-04-24T03:26:56;100335.84;;;15.88;100.00
35647;BME280;28680;45.642;13.756;2023-04-24T03:29:22;100325.91;;;15.90;100.00
35647;BME280;28680;45.642;13.756;2023-04-24T03:31:48;100323.94;;;15.92;100.00
35647;BME280;28680;45.642;13.756;2023-04-24T03:34:14;100322.13;;;15.85;100.00
35647;BME280;28680;45.642;13.756;2023-04-24T03:36:40;100327.41;;;15.85;100.00
35647;BME280;28680;45.642;13.756;2023-04-24T03:39:06;100329.22;;;15.84;100.00
35647;BME280;28680;45.642;13.756;2023-04-24T03:41:32;100323.28;;;15.90;100.00
35647;BME280;28680;45.642;13.756;2023-04-24T03:43:57;100322.44;;;15.90;100.00
35647;BME280;28680;45.642;13.756;2023-04-24T03:46:23;100329.88;;;15.94;100.00
35647;BME280;28680;45.642;13.756;2023-04-24T03:48:49;100328.56;;;15.98;100.00
35647;BME280;28680;45.642;13.756;2023-04-24T03:51:15;100322.25;;;15.91;100.00
35647;BME280;28680;45.642;13.756;2023-04-24T03:53:41;100322.25;;;15.91;100.00
35647;BME280;28680;45.642;13.756;2023-04-24T03:56:07;100328.41;;;15.92;100.00
35647;BME280;28680;45.642;13.756;2023-04-24T03:58:32;100321.44;;;15.83;100.00
35647;BME280;28680;45.642;13.756;2023-04-24T04:00:58;100333.19;;;15.96;100.00
35647;BME280;28680;45.642;13.756;2023-04-24T04:03:24;100328.06;;;15.87;100.00
35647;BME280;28680;45.642;13.756;2023-04-24T04:05:51;100313.66;;;15.89;100.00
35647;BME280;28680;45.642;13.756;2023-04-24T04:08:17;100318.97;;;15.89;100.00
35647;BME280;28680;45.642;13.756;2023-04-24T04:10:43;100314.50;;;15.90;100.00
35647;BME280;28680;45.642;13.756;2023-04-24T04:13:09;100314.81;;;15.95;100.00
35647;BME280;28680;45.642;13.756;2023-04-24T04:15:35;100312.03;;;15.88;100.00
35647;BME280;28680;45.642;13.756;2023-04-24T04:18:01;100313.69;;;15.81;100.00
35647;BME280;28680;45.642;13.756;2023-04-24T04:20:27;100314.19;;;15.85;100.00
35647;BME280;28680;45.642;13.756;2023-04-24T04:22:53;100310.38;;;15.79;100.00
35647;BME280;28680;45.642;13.756;2023-04-24T04:25:19;100320.13;;;15.78;100.00
35647;BME280;28680;45.642;13.756;2023-04-24T04:27:46;100311.19;;;15.79;100.00
35647;BME280;28680;45.642;13.756;2023-04-24T04:30:13;100321.78;;;15.79;100.00
35647;BME280;28680;45.642;13.756;2023-04-24T04:32:39;100316.81;;;15.76;100.00
35647;BME280;28680;45.642;13.756;2023-04-24T04:35:05;100316.81;;;15.76;100.00
35647;BME280;28680;45.642;13.756;2023-04-24T04:37:34;100316.13;;;15.74;100.00
35647;BME280;28680;45.642;13.756;2023-04-24T04:40:00;100311.16;;;15.71;100.00
35647;BME280;28680;45.642;13.756;2023-04-24T04:42:26;100309.56;;;15.78;100.00
35647;BME280;28680;45.642;13.756;2023-04-24T04:44:54;100303.75;;;15.75;100.00
35647;BME280;28680;45.642;13.756;2023-04-24T04:47:21;100307.50;;;15.72;100.00
35647;BME280;28680;45.642;13.756;2023-04-24T04:49:50;100310.16;;;15.72;100.00
35647;BME280;28680;45.642;13.756;2023-04-24T04:52:18;100311.84;;;15.73;100.00
35647;BME280;28680;45.642;13.756;2023-04-24T04:54:44;100314.63;;;15.72;100.00
35647;BME280;28680;45.642;13.756;2023-04-24T04:57:10;100310.00;;;15.66;100.00
35647;BME280;28680;45.642;13.756;2023-04-24T04:59:36;100315.31;;;15.74;100.00
35647;BME280;28680;45.642;13.756;2023-04-24T05:02:02;100310.16;;;15.72;100.00
35647;BME280;28680;45.642;13.756;2023-04-24T05:04:28;100311.16;;;15.71;100.00
35647;BME280;28680;45.642;13.756;2023-04-24T05:06:54;100316.81;;;15.76;100.00
35647;BME280;28680;45.642;13.756;2023-04-24T05:09:20;100311.69;;;15.75;100.00
35647;BME280;28680;45.642;13.756;2023-04-24T05:11:46;100312.78;;;15.72;100.00
35647;BME280;28680;45.642;13.756;2023-04-24T05:14:12;100319.91;;;15.72;100.00
35647;BME280;28680;45.642;13.756;2023-04-24T05:16:39;100320.22;;;15.69;100.00
35647;BME280;28680;45.642;13.756;2023-04-24T05:19:05;100317.28;;;15.64;100.00
35647;BME280;28680;45.642;13.756;2023-04-24T05:21:31;100322.06;;;15.60;100.00
35647;BME280;28680;45.642;13.756;2023-04-24T05:23:57;100327.66;;;15.57;100.00
35647;BME280;28680;45.642;13.756;2023-04-24T05:26:23;100331.63;;;15.53;100.00
35647;BME280;28680;45.642;13.756;2023-04-24T05:28:49;100335.91;;;15.46;100.00
35647;BME280;28680;45.642;13.756;2023-04-24T05:31:16;100330.31;;;15.49;100.00
35647;BME280;28680;45.642;13.756;2023-04-24T05:33:43;100337.41;;;15.48;100.00
35647;BME280;28680;45.642;13.756;2023-04-24T05:36:09;100329.13;;;15.51;100.00
35647;BME280;28680;45.642;13.756;2023-04-24T05:38:35;100335.09;;;15.53;100.00
35647;BME280;28680;45.642;13.756;2023-04-24T05:41:01;100338.22;;;15.49;100.00
35647;BME280;28680;45.642;13.756;2023-04-24T05:43:27;100340.72;;;15.50;100.00
35647;BME280;28680;45.642;13.756;2023-04-24T05:45:53;100343.19;;;15.52;100.00
35647;BME280;28680;45.642;13.756;2023-04-24T05:48:19;100327.16;;;15.53;100.00
35647;BME280;28680;45.642;13.756;2023-04-24T05:50:45;100335.94;;;15.54;100.00
35647;BME280;28680;45.642;13.756;2023-04-24T05:53:12;100325.16;;;15.55;100.00
35647;BME280;28680;45.642;13.756;2023-04-24T05:55:38;100324.84;;;15.58;100.00
35647;BME280;28680;45.642;13.756;2023-04-24T05:58:04;100316.41;;;15.55;100.00
35647;BME280;28680;45.642;13.756;2023-04-24T06:00:31;100322.72;;;15.54;100.00
35647;BME280;28680;45.642;13.756;2023-04-24T06:02:57;100320.22;;;15.52;100.00
35647;BME280;28680;45.642;13.756;2023-04-24T06:05:23;100320.38;;;15.51;100.00
35647;BME280;28680;45.642;13.756;2023-04-24T06:07:48;100324.00;;;15.42;100.00
35647;BME280;28680;45.642;13.756;2023-04-24T06:10:14;100320.38;;;15.43;100.00
35647;BME280;28680;45.642;13.756;2023-04-24T06:12:41;100334.41;;;15.43;100.00
35647;BME280;28680;45.642;13.756;2023-04-24T06:15:07;100342.16;;;15.36;100.00
35647;BME280;28680;45.642;13.756;2023-04-24T06:17:33;100345.59;;;15.29;100.00
35647;BME280;28680;45.642;13.756;2023-04-24T06:19:59;100346.44;;;15.29;100.00
35647;BME280;28680;45.642;13.756;2023-04-24T06:22:25;100344.28;;;15.25;100.00
35647;BME280;28680;45.642;13.756;2023-04-24T06:24:51;100359.63;;;15.21;100.00
35647;BME280;28680;45.642;13.756;2023-04-24T06:27:17;100359.16;;;15.26;100.00
35647;BME280;28680;45.642;13.756;2023-04-24T06:29:45;100352.03;;;15.18;100.00
35647;BME280;28680;45.642;13.756;2023-04-24T06:32:14;100363.19;;;15.04;100.00
35647;BME280;28680;45.642;13.756;2023-04-24T06:34:40;100364.66;;;14.98;100.00
35647;BME280;28680;45.642;13.756;2023-04-24T06:37:05;100366.13;;;14.92;100.00
35647;BME280;28680;45.642;13.756;2023-04-24T06:39:32;100365.75;;;14.87;100.00
35647;BME280;28680;45.642;13.756;2023-04-24T06:41:58;100363.97;;;14.88;100.00
35647;BME280;28680;45.642;13.756;2023-04-24T06:44:24;100360.31;;;14.89;100.00
35647;BME280;28680;45.642;13.756;2023-04-24T06:46:50;100347.75;;;14.91;100.00
35647;BME280;28680;45.642;13.756;2023-04-24T06:49:16;100346.47;;;14.95;100.00
35647;BME280;28680;45.642;13.756;2023-04-24T06:51:42;100357.38;;;14.92;100.00
35647;BME280;28680;45.642;13.756;2023-04-24T06:54:08;100350.94;;;15.02;100.00
35647;BME280;28680;45.642;13.756;2023-04-24T06:56:34;100358.41;;;15.07;100.00
35647;BME280;28680;45.642;13.756;2023-04-24T06:59:00;100354.78;;;15.08;100.00
35647;BME280;28680;45.642;13.756;2023-04-24T07:01:26;100354.78;;;15.08;100.00
35647;BME280;28680;45.642;13.756;2023-04-24T07:03:52;100346.03;;;15.16;100.00
35647;BME280;28680;45.642;13.756;2023-04-24T07:06:18;100348.22;;;15.20;100.00
35647;BME280;28680;45.642;13.756;2023-04-24T07:08:47;100344.13;;;15.26;100.00
35647;BME280;28680;45.642;13.756;2023-04-24T07:11:13;100338.47;;;15.21;100.00
35647;BME280;28680;45.642;13.756;2023-04-24T07:13:38;100330.38;;;15.23;100.00
35647;BME280;28680;45.642;13.756;2023-04-24T07:16:08;100329.06;;;15.27;100.00
35647;BME280;28680;45.642;13.756;2023-04-24T07:18:34;100331.72;;;15.27;100.00
35647;BME280;28680;45.642;13.756;2023-04-24T07:21:00;100334.22;;;15.28;100.00
35647;BME280;28680;45.642;13.756;2023-04-24T07:23:26;100326.94;;;15.22;100.00
35647;BME280;28680;45.642;13.756;2023-04-24T07:25:52;100325.41;;;15.19;100.00
35647;BME280;28680;45.642;13.756;2023-04-24T07:28:18;100323.13;;;15.25;100.00
35647;BME280;28680;45.642;13.756;2023-04-24T07:30:44;100323.94;;;15.25;100.00
35647;BME280;28680;45.642;13.756;2023-04-24T07:33:10;100316.97;;;15.16;100.00
35647;BME280;28680;45.642;13.756;2023-04-24T07:35:38;100321.13;;;15.18;100.00
35647;BME280;28680;45.642;13.756;2023-04-24T07:38:04;100308.34;;;15.06;100.00
35647;BME280;28680;45.642;13.756;2023-04-24T07:40:30;100308.34;;;15.06;100.00
35647;BME280;28680;45.642;13.756;2023-04-24T07:42:56;100306.34;;;14.99;100.00
35647;BME280;28680;45.642;13.756;2023-04-24T07:45:22;100312.09;;;14.95;100.00
35647;BME280;28680;45.642;13.756;2023-04-24T07:47:50;100311.28;;;14.94;100.00
35647;BME280;28680;45.642;13.756;2023-04-24T07:50:16;100317.38;;;14.95;100.00
35647;BME280;28680;45.642;13.756;2023-04-24T07:52:44;100317.88;;;14.90;100.00
35647;BME280;28680;45.642;13.756;2023-04-24T07:55:10;100318.69;;;14.91;100.00
35647;BME280;28680;45.642;13.756;2023-04-24T07:57:36;100313.41;;;14.91;100.00
35647;BME280;28680;45.642;13.756;2023-04-24T08:00:04;100314.09;;;14.93;100.00
35647;BME280;28680;45.642;13.756;2023-04-24T08:02:31;100318.25;;;14.95;100.00
35647;BME280;28680;45.642;13.756;2023-04-24T08:04:57;100316.88;;;14.91;100.00
35647;BME280;28680;45.642;13.756;2023-04-24T08:07:24;100324.66;;;14.93;100.00
35647;BME280;28680;45.642;13.756;2023-04-24T08:09:50;100319.72;;;14.98;100.00
35647;BME280;28680;45.642;13.756;2023-04-24T08:12:15;100318.53;;;14.92;100.00
35647;BME280;28680;45.642;13.756;2023-04-24T08:14:41;100323.03;;;15.00;100.00
35647;BME280;28680;45.642;13.756;2023-04-24T08:17:07;100317.09;;;14.98;100.00
35647;BME280;28680;45.642;13.756;2023-04-24T08:19:33;100319.50;;;14.83;100.00
35647;BME280;28680;45.642;13.756;2023-04-24T08:21:59;100316.56;;;14.94;100.00
35647;BME280;28680;45.642;13.756;2023-04-24T08:24:25;100312.47;;;15.00;100.00
35647;BME280;28680;45.642;13.756;2023-04-24T08:26:51;100306.69;;;15.05;100.00
35647;BME280;28680;45.642;13.756;2023-04-24T08:29:19;100306.34;;;14.99;100.00
35647;BME280;28680;45.642;13.756;2023-04-24T08:31:46;100307.66;;;14.95;100.00
35647;BME280;28680;45.642;13.756;2023-04-24T08:34:11;100310.47;;;14.94;100.00
35647;BME280;28680;45.642;13.756;2023-04-24T08:36:37;100312.09;;;14.95;100.00
35647;BME280;28680;45.642;13.756;2023-04-24T08:39:03;100313.94;;;15.02;100.00
35647;BME280;28680;45.642;13.756;2023-04-24T08:41:30;100313.94;;;14.94;100.00
35647;BME280;28680;45.642;13.756;2023-04-24T08:43:56;100310.63;;;14.92;100.00
35647;BME280;28680;45.642;13.756;2023-04-24T08:46:24;100313.03;;;14.77;100.00
35647;BME280;28680;45.642;13.756;2023-04-24T08:48:52;100310.91;;;14.81;100.00
35647;BME280;28680;45.642;13.756;2023-04-24T08:51:18;100312.34;;;14.75;100.00
35647;BME280;28680;45.642;13.756;2023-04-24T08:53:45;100316.09;;;14.65;100.00
35647;BME280;28680;45.642;13.756;2023-04-24T08:56:11;100314.44;;;14.64;100.00
35647;BME280;28680;45.642;13.756;2023-04-24T08:58:38;100323.69;;;14.59;100.00
35647;BME280;28680;45.642;13.756;2023-04-24T09:01:05;100309.94;;;14.56;100.00
35647;BME280;28680;45.642;13.756;2023-04-24T09:03:31;100318.16;;;14.53;100.00
35647;BME280;28680;45.642;13.756;2023-04-24T09:05:59;100316.00;;;14.48;100.00
35647;BME280;28680;45.642;13.756;2023-04-24T09:08:26;100321.19;;;14.40;100.00
35647;BME280;28680;45.642;13.756;2023-04-24T09:10:53;100313.94;;;14.42;100.00
35647;BME280;28680;45.642;13.756;2023-04-24T09:13:22;100321.72;;;14.43;100.00
35647;BME280;28680;45.642;13.756;2023-04-24T09:15:48;100320.84;;;14.35;100.00
35647;BME280;28680;45.642;13.756;2023-04-24T09:18:14;100327.25;;;14.32;100.00
35647;BME280;28680;45.642;13.756;2023-04-24T09:21:06;100326.59;;;14.30;100.00
35647;BME280;28680;45.642;13.756;2023-04-24T09:23:32;100326.88;;;14.27;100.00
35647;BME280;28680;45.642;13.756;2023-04-24T09:26:01;100319.06;;;14.17;100.00
35647;BME280;28680;45.642;13.756;2023-04-24T09:28:45;100321.16;;;14.14;100.00
35647;BME280;28680;45.642;13.756;2023-04-24T09:31:18;100330.22;;;14.11;100.00
35647;BME280;28680;45.642;13.756;2023-04-24T09:34:01;100327.31;;;14.14;100.00
35647;BME280;28680;45.642;13.756;2023-04-24T09:36:40;100332.25;;;14.17;100.00
35647;BME280;28680;45.642;13.756;2023-04-24T09:39:12;100330.38;;;14.28;100.00
35647;BME280;28680;45.642;13.756;2023-04-24T09:41:55;100332.09;;;14.37;100.00
35647;BME280;28680;45.642;13.756;2023-04-24T09:44:27;100316.97;;;14.47;100.00
35647;BME280;28680;45.642;13.756;2023-04-24T09:46:58;100323.28;;;14.54;100.00
35647;BME280;28680;45.642;13.756;2023-04-24T09:49:30;100325.78;;;14.56;100.00
35647;BME280;28680;45.642;13.756;2023-04-24T09:52:09;100325.91;;;14.54;100.00
35647;BME280;28680;45.642;13.756;2023-04-24T09:54:36;100327.88;;;14.52;100.00
35647;BME280;28680;45.642;13.756;2023-04-24T09:57:03;100318.22;;;14.61;100.00
35647;BME280;28680;45.642;13.756;2023-04-24T09:59:29;100326.13;;;14.61;100.00
35647;BME280;28680;45.642;13.756;2023-04-24T10:01:56;100325.16;;;14.62;100.00
35647;BME280;28680;45.642;13.756;2023-04-24T10:04:28;100331.91;;;14.38;100.00
35647;BME280;28680;45.642;13.756;2023-04-24T10:06:56;100331.34;;;14.53;100.00
35647;BME280;28680;45.642;13.756;2023-04-24T10:09:26;100328.03;;;14.51;100.00
35647;BME280;28680;45.642;13.756;2023-04-24T10:11:54;100332.72;;;14.57;100.00
35647;BME280;28680;45.642;13.756;2023-04-24T10:14:25;100319.25;;;14.68;100.00
35647;BME280;28680;45.642;13.756;2023-04-24T10:16:54;100318.13;;;14.71;100.00
35647;BME280;28680;45.642;13.756;2023-04-24T10:19:20;100321.25;;;14.74;100.00
35647;BME280;28680;45.642;13.756;2023-04-24T10:21:47;100315.22;;;14.82;100.00
35647;BME280;28680;45.642;13.756;2023-04-24T10:24:18;100316.84;;;14.83;100.00
35647;BME280;28680;45.642;13.756;2023-04-24T10:26:45;100308.63;;;14.86;100.00
35647;BME280;28680;45.642;13.756;2023-04-24T10:29:13;100312.91;;;14.87;100.00
35647;BME280;28680;45.642;13.756;2023-04-24T10:31:40;100317.22;;;14.88;100.00
35647;BME280;28680;45.642;13.756;2023-04-24T10:34:09;100313.06;;;14.86;100.00
35647;BME280;28680;45.642;13.756;2023-04-24T10:36:40;100316.22;;;14.89;100.00
35647;BME280;28680;45.642;13.756;2023-04-24T10:39:12;100317.34;;;14.78;100.00
35647;BME280;28680;45.642;13.756;2023-04-24T10:41:40;100315.97;;;14.74;100.00
35647;BME280;28680;45.642;13.756;2023-04-24T10:44:08;100321.47;;;14.81;100.00
35647;BME280;28680;45.642;13.756;2023-04-24T10:46:36;100320.97;;;14.86;100.00
35647;BME280;28680;45.642;13.756;2023-04-24T10:49:06;100321.84;;;14.86;100.00
35647;BME280;28680;45.642;13.756;2023-04-24T10:51:52;100327.72;;;14.80;100.00
35647;BME280;28680;45.642;13.756;2023-04-24T10:56:52;100324.13;;;14.89;100.00
35647;BME280;28680;45.642;13.756;2023-04-24T10:59:28;100326.47;;;14.92;100.00
35647;BME280;28680;45.642;13.756;2023-04-24T11:02:00;100333.06;;;14.88;100.00
35647;BME280;28680;45.642;13.756;2023-04-24T11:04:33;100338.50;;;14.87;100.00
35647;BME280;28680;45.642;13.756;2023-04-24T11:07:02;100340.31;;;14.86;100.00
35647;BME280;28680;45.642;13.756;2023-04-24T11:09:30;100333.91;;;14.97;100.00
35647;BME280;28680;45.642;13.756;2023-04-24T11:12:16;100326.34;;;15.02;100.00
35647;BME280;28680;45.642;13.756;2023-04-24T11:17:34;100334.84;;;15.22;100.00
35647;BME280;28680;45.642;13.756;2023-04-24T11:20:09;100330.38;;;15.23;100.00
35647;BME280;28680;45.642;13.756;2023-04-24T11:22:39;100324.59;;;15.27;100.00
35647;BME280;28680;45.642;13.756;2023-04-24T11:25:06;100332.06;;;15.24;100.00
35647;BME280;28680;45.642;13.756;2023-04-24T11:27:42;100340.44;;;15.19;100.00
35647;BME280;28680;45.642;13.756;2023-04-24T11:30:10;100336.66;;;15.21;100.00
35647;BME280;28680;45.642;13.756;2023-04-24T11:32:40;100336.34;;;15.25;100.00
35647;BME280;28680;45.642;13.756;2023-04-24T11:35:14;100343.44;;;15.24;100.00
35647;BME280;28680;45.642;13.756;2023-04-24T11:37:49;100352.69;;;15.20;100.00
35647;BME280;28680;45.642;13.756;2023-04-24T11:40:17;100353.03;;;15.25;100.00
35647;BME280;28680;45.642;13.756;2023-04-24T11:42:46;100363.13;;;15.30;100.00
35647;BME280;28680;45.642;13.756;2023-04-24T11:45:20;100355.66;;;15.17;100.00
35647;BME280;28680;45.642;13.756;2023-04-24T11:47:46;100349.38;;;15.18;100.00
35647;BME280;28680;45.642;13.756;2023-04-24T11:50:18;100346.41;;;15.21;100.00
35647;BME280;28680;45.642;13.756;2023-04-24T11:52:48;100351.03;;;15.19;100.00
35647;BME280;28680;45.642;13.756;2023-04-24T11:57:43;100352.19;;;15.16;100.00
35647;BME280;28680;45.642;13.756;2023-04-24T12:00:26;100344.25;;;15.16;100.00
35647;BME280;28680;45.642;13.756;2023-04-24T12:03:10;100340.59;;;15.17;100.00
35647;BME280;28680;45.642;13.756;2023-04-24T12:05:38;100344.56;;;15.13;100.00
35647;BME280;28680;45.642;13.756;2023-04-24T12:08:04;100334.81;;;15.14;100.00
35647;BME280;28680;45.642;13.756;2023-04-24T12:10:32;100327.25;;;15.27;100.00
35647;BME280;28680;45.642;13.756;2023-04-24T12:12:59;100329.88;;;15.19;100.00
35647;BME280;28680;45.642;13.756;2023-04-24T12:15:26;100319.63;;;15.16;100.00
35647;BME280;28680;45.642;13.756;2023-04-24T12:17:54;100319.81;;;15.23;100.00
35647;BME280;28680;45.642;13.756;2023-04-24T12:20:32;100314.03;;;15.27;100.00
35647;BME280;28680;45.642;13.756;2023-04-24T12:23:00;100313.72;;;15.22;100.00
35647;BME280;28680;45.642;13.756;2023-04-24T12:25:33;100316.50;;;15.20;100.00
35647;BME280;28680;45.642;13.756;2023-04-24T12:30:31;100320.47;;;15.25;100.00
35647;BME280;28680;45.642;13.756;2023-04-24T12:33:00;100318.00;;;15.23;100.00
35647;BME280;28680;45.642;13.756;2023-04-24T12:35:30;100317.59;;;15.60;100.00
35647;BME280;28680;45.642;13.756;2023-04-24T12:38:07;100311.13;;;15.47;100.00
35647;BME280;28680;45.642;13.756;2023-04-24T12:40:33;100317.00;;;15.24;100.00
35647;BME280;28680;45.642;13.756;2023-04-24T12:42:59;100324.13;;;15.24;100.00